createdAt,value
2022-12-03T00:00:35.606Z,88.43
2022-12-03T00:03:02.444Z,88.86
2022-12-03T00:05:29.149Z,88.75
2022-12-03T00:07:55.768Z,88.71
2022-12-03T00:10:22.332Z,88.57
2022-12-03T00:12:48.829Z,88.65
2022-12-03T00:15:15.436Z,88.75
2022-12-03T00:17:41.970Z,88.49
2022-12-03T00:20:09.830Z,88.73
2022-12-03T00:22:36.347Z,88.66
2022-12-03T00:25:02.950Z,88.86
2022-12-03T00:27:29.488Z,88.91
2022-12-03T00:29:55.991Z,88.89
2022-12-03T00:32:22.469Z,88.78
2022-12-03T00:34:48.986Z,89.21
2022-12-03T00:37:15.560Z,89.13
2022-12-03T00:39:42.097Z,88.93
2022-12-03T00:42:08.583Z,89.03
2022-12-03T00:44:35.205Z,89.38
2022-12-03T00:47:01.882Z,89.37
2022-12-03T00:49:28.376Z,89.75
2022-12-03T00:51:54.856Z,89.64
2022-12-03T00:54:22.786Z,89.60
2022-12-03T00:56:52.076Z,89.50
2022-12-03T00:59:18.627Z,89.63
2022-12-03T01:01:45.182Z,89.86
2022-12-03T01:04:11.829Z,89.90
2022-12-03T01:06:38.654Z,89.79
2022-12-03T01:09:05.290Z,89.78
2022-12-03T01:11:37.396Z,89.70
2022-12-03T01:14:05.955Z,89.51
2022-12-03T01:16:32.921Z,89.90
2022-12-03T01:18:59.541Z,90.16
2022-12-03T01:21:26.055Z,89.47
2022-12-03T01:23:52.598Z,89.57
2022-12-03T01:26:19.138Z,89.77
2022-12-03T01:28:45.596Z,89.98
2022-12-03T01:31:30.771Z,89.97
2022-12-03T01:33:57.379Z,89.59
2022-12-03T01:36:24.013Z,89.87
2022-12-03T01:38:50.547Z,90.03
2022-12-03T01:41:18.981Z,89.80
2022-12-03T01:43:46.061Z,89.99
2022-12-03T01:46:16.560Z,90.53
2022-12-03T01:48:43.672Z,90.27
2022-12-03T01:51:10.211Z,89.98
2022-12-03T01:53:36.853Z,90.17
2022-12-03T01:56:04.222Z,89.88
2022-12-03T01:58:31.164Z,89.87
2022-12-03T02:01:01.513Z,89.65
2022-12-03T02:03:28.575Z,90.01
2022-12-03T02:05:56.827Z,90.02
2022-12-03T02:08:37.620Z,90.20
2022-12-03T02:11:22.267Z,90.03
2022-12-03T02:13:52.742Z,90.14
2022-12-03T02:16:19.304Z,90.44
2022-12-03T02:18:46.030Z,90.42
2022-12-03T02:21:31.099Z,90.34
2022-12-03T02:24:24.814Z,90.30
2022-12-03T02:26:51.345Z,89.94
2022-12-03T02:29:17.904Z,90.40
2022-12-03T02:31:44.678Z,90.28
2022-12-03T02:34:11.623Z,90.26
2022-12-03T02:36:39.049Z,90.30
2022-12-03T02:39:05.985Z,90.38
2022-12-03T02:41:51.246Z,90.75
2022-12-03T02:44:17.750Z,90.70
2022-12-03T02:46:44.264Z,90.62
2022-12-03T02:49:10.902Z,90.42
2022-12-03T02:51:37.702Z,90.39
2022-12-03T02:54:04.461Z,90.60
2022-12-03T02:56:32.573Z,90.82
2022-12-03T02:59:02.941Z,91.09
2022-12-03T03:01:29.660Z,90.77
2022-12-03T03:03:56.752Z,90.80
2022-12-03T03:06:23.455Z,90.60
2022-12-03T03:08:50.160Z,90.91
2022-12-03T03:11:16.806Z,90.75
2022-12-03T03:13:43.728Z,91.06
2022-12-03T03:16:10.484Z,91.15
2022-12-03T03:18:37.103Z,90.91
2022-12-03T03:21:04.272Z,90.72
2022-12-03T03:23:30.819Z,90.74
2022-12-03T03:26:02.550Z,90.85
2022-12-03T03:28:30.302Z,90.65
2022-12-03T03:31:00.519Z,91.12
2022-12-03T03:33:27.534Z,90.28
2022-12-03T03:35:54.526Z,90.73
2022-12-03T03:38:22.682Z,90.67
2022-12-03T03:40:51.186Z,90.77
2022-12-03T03:43:18.387Z,90.34
2022-12-03T03:45:45.081Z,90.29
2022-12-03T03:48:13.011Z,90.82
2022-12-03T03:50:39.954Z,91.13
2022-12-03T03:53:06.780Z,90.78
2022-12-03T03:55:34.540Z,90.99
2022-12-03T03:58:01.198Z,90.84
2022-12-03T04:00:27.935Z,91.02
2022-12-03T04:02:54.427Z,90.84
2022-12-03T04:05:23.611Z,91.40
2022-12-03T04:07:50.868Z,91.05
2022-12-03T04:10:38.054Z,91.02
2022-12-03T04:13:05.604Z,91.61
2022-12-03T04:15:32.110Z,91.45
2022-12-03T04:18:17.166Z,91.23
2022-12-03T04:20:43.770Z,90.89
2022-12-03T04:23:10.359Z,90.92
2022-12-03T04:25:55.800Z,91.16
2022-12-03T04:28:41.132Z,91.08
2022-12-03T04:31:26.386Z,90.78
2022-12-03T04:34:11.757Z,90.81
2022-12-03T04:36:38.432Z,90.89
2022-12-03T04:39:07.044Z,91.57
2022-12-03T04:41:33.584Z,91.36
2022-12-03T04:44:18.453Z,91.08
2022-12-03T04:46:44.938Z,91.05
2022-12-03T04:49:12.609Z,91.45
2022-12-03T04:51:39.176Z,91.47
2022-12-03T04:54:05.764Z,91.11
2022-12-03T04:56:32.300Z,91.33
2022-12-03T04:58:58.772Z,91.52
2022-12-03T05:01:25.319Z,91.75
2022-12-03T05:03:51.918Z,91.53
2022-12-03T05:06:18.384Z,91.20
2022-12-03T05:08:44.849Z,91.50
2022-12-03T05:11:11.433Z,91.48
2022-12-03T05:13:37.957Z,91.29
2022-12-03T05:16:04.514Z,91.36
2022-12-03T05:18:30.974Z,91.49
2022-12-03T05:20:57.492Z,91.83
2022-12-03T05:23:24.774Z,91.52
2022-12-03T05:25:51.505Z,91.61
2022-12-03T05:28:18.039Z,91.95
2022-12-03T05:30:44.604Z,91.93
2022-12-03T05:33:11.097Z,92.06
2022-12-03T05:35:37.561Z,92.09
2022-12-03T05:38:04.144Z,91.98
2022-12-03T05:40:30.633Z,92.21
2022-12-03T05:42:57.251Z,92.24
2022-12-03T05:45:30.923Z,92.17
2022-12-03T05:47:58.804Z,92.32
2022-12-03T05:50:27.295Z,92.21
2022-12-03T05:52:54.655Z,92.17
2022-12-03T05:55:21.234Z,92.39
2022-12-03T05:57:48.045Z,92.39
2022-12-03T06:00:20.640Z,92.79
2022-12-03T06:02:47.747Z,92.41
2022-12-03T06:05:15.685Z,92.92
2022-12-03T06:07:42.667Z,92.64
2022-12-03T06:10:11.548Z,92.69
2022-12-03T06:12:38.215Z,92.69
2022-12-03T06:15:05.655Z,93.21
2022-12-03T06:17:32.128Z,93.02
2022-12-03T06:19:58.634Z,93.01
2022-12-03T06:22:25.202Z,93.13
2022-12-03T06:24:52.096Z,93.33
2022-12-03T06:27:19.194Z,93.48
2022-12-03T06:29:45.737Z,93.28
2022-12-03T06:32:12.341Z,93.26
2022-12-03T06:34:38.858Z,93.30
2022-12-03T06:37:05.561Z,93.33
2022-12-03T06:39:32.113Z,93.57
2022-12-03T06:42:01.428Z,93.28
2022-12-03T06:44:27.959Z,93.15
2022-12-03T06:46:54.541Z,93.12
2022-12-03T06:49:21.165Z,93.01
2022-12-03T06:51:47.658Z,93.26
2022-12-03T06:54:14.161Z,93.45
2022-12-03T06:56:45.158Z,93.39
2022-12-03T06:59:12.213Z,93.08
2022-12-03T07:01:38.752Z,92.82
2022-12-03T07:04:05.767Z,93.14
2022-12-03T07:06:32.247Z,93.25
2022-12-03T07:08:58.779Z,92.89
2022-12-03T07:11:31.126Z,93.41
2022-12-03T07:14:05.494Z,92.70
2022-12-03T07:16:33.164Z,93.00
2022-12-03T07:18:59.940Z,92.96
2022-12-03T07:21:26.458Z,93.07
2022-12-03T07:23:52.997Z,93.35
2022-12-03T07:26:19.544Z,93.21
2022-12-03T07:28:48.145Z,93.15
2022-12-03T07:31:15.195Z,93.21
2022-12-03T07:33:42.301Z,93.26
2022-12-03T07:36:09.490Z,92.98
2022-12-03T07:38:36.313Z,92.85
2022-12-03T07:41:02.835Z,92.65
2022-12-03T07:43:29.430Z,92.60
2022-12-03T07:45:55.939Z,92.71
2022-12-03T07:48:22.426Z,92.25
2022-12-03T07:50:49.005Z,92.14
2022-12-03T07:53:15.622Z,91.82
2022-12-03T07:55:42.176Z,91.96
2022-12-03T07:58:09.337Z,92.28
2022-12-03T08:00:35.967Z,92.23
2022-12-03T08:03:02.522Z,92.21
2022-12-03T08:05:29.637Z,92.39
2022-12-03T08:07:56.686Z,92.31
2022-12-03T08:10:25.313Z,92.14
2022-12-03T08:12:53.627Z,92.40
2022-12-03T08:15:26.568Z,92.29
2022-12-03T08:18:00.658Z,92.49
2022-12-03T08:20:31.691Z,92.53
2022-12-03T08:22:58.922Z,92.49
2022-12-03T08:25:28.585Z,92.45
2022-12-03T08:28:00.139Z,92.76
2022-12-03T08:30:26.673Z,92.66
2022-12-03T08:32:53.833Z,92.69
2022-12-03T08:35:27.178Z,93.14
2022-12-03T08:37:59.577Z,93.12
2022-12-03T08:40:37.343Z,93.04
2022-12-03T08:43:17.977Z,92.94
2022-12-03T08:45:45.245Z,92.95
2022-12-03T08:48:25.417Z,93.46
2022-12-03T08:50:57.564Z,93.27
2022-12-03T08:53:36.692Z,93.11
2022-12-03T08:56:20.760Z,93.19
2022-12-03T08:58:49.417Z,93.20
2022-12-03T09:01:29.572Z,93.56
2022-12-03T09:03:58.849Z,93.36
2022-12-03T09:06:25.404Z,93.71
2022-12-03T09:08:51.899Z,93.56
2022-12-03T09:11:18.394Z,93.25
2022-12-03T09:13:44.924Z,93.45
2022-12-03T09:16:11.546Z,92.52
2022-12-03T09:18:38.180Z,92.51
2022-12-03T09:21:04.918Z,92.14
2022-12-03T09:23:31.425Z,91.91
2022-12-03T09:25:58.739Z,92.16
2022-12-03T09:28:25.310Z,91.68
2022-12-03T09:30:51.813Z,92.39
2022-12-03T09:33:18.348Z,91.99
2022-12-03T09:35:44.807Z,91.92
2022-12-03T09:38:11.462Z,91.98
2022-12-03T09:40:40.442Z,91.81
2022-12-03T09:43:07.035Z,92.19
2022-12-03T09:45:34.096Z,92.34
2022-12-03T09:48:02.023Z,91.76
2022-12-03T09:50:28.852Z,91.83
2022-12-03T09:52:58.395Z,91.66
2022-12-03T09:55:27.925Z,91.99
2022-12-03T09:57:55.646Z,91.95
2022-12-03T10:00:28.479Z,92.01
2022-12-03T10:02:59.378Z,91.65
2022-12-03T10:05:25.964Z,91.41
2022-12-03T10:07:53.233Z,91.35
2022-12-03T10:10:21.754Z,91.17
2022-12-03T10:12:50.538Z,91.44
2022-12-03T10:15:19.538Z,91.39
2022-12-03T10:17:47.713Z,91.42
2022-12-03T10:20:18.972Z,91.88
2022-12-03T10:22:48.564Z,91.63
2022-12-03T10:25:19.117Z,91.77
2022-12-03T10:28:03.810Z,91.65
2022-12-03T10:30:30.451Z,91.32
2022-12-03T10:32:58.445Z,91.42
2022-12-03T10:35:37.075Z,91.27
2022-12-03T10:38:04.914Z,91.20
2022-12-03T10:40:34.282Z,91.65
2022-12-03T10:43:19.002Z,91.51
2022-12-03T10:45:47.896Z,91.38
2022-12-03T10:48:19.548Z,91.89
2022-12-03T10:50:54.994Z,91.39
2022-12-03T10:53:26.053Z,90.68
2022-12-03T10:55:52.682Z,90.68
2022-12-03T10:58:22.605Z,90.11
2022-12-03T11:00:51.223Z,89.66
2022-12-03T11:03:30.016Z,90.31
2022-12-03T11:05:57.630Z,89.38
2022-12-03T11:08:27.470Z,88.71
2022-12-03T11:10:59.483Z,88.53
2022-12-03T11:13:34.856Z,89.58
2022-12-03T11:16:03.780Z,88.21
2022-12-03T11:18:35.961Z,87.93
2022-12-03T11:21:09.892Z,86.94
2022-12-03T11:23:45.218Z,87.87
2022-12-03T11:26:39.082Z,87.33
2022-12-03T11:29:14.001Z,86.94
2022-12-03T11:31:46.448Z,87.09
2022-12-03T11:34:18.862Z,86.41
2022-12-03T11:37:10.238Z,86.89
2022-12-03T11:39:52.191Z,86.92
2022-12-03T11:42:27.872Z,86.23
2022-12-03T11:45:06.657Z,86.34
2022-12-03T11:47:36.110Z,86.16
2022-12-03T11:50:22.740Z,86.67
2022-12-03T11:52:55.320Z,86.29
2022-12-03T11:56:06.511Z,86.83
2022-12-03T11:58:33.505Z,86.67
2022-12-03T12:01:02.068Z,86.58
2022-12-03T12:03:33.716Z,87.34
2022-12-03T12:06:11.112Z,87.64
2022-12-03T12:08:51.367Z,87.37
2022-12-03T12:11:30.708Z,86.90
2022-12-03T12:14:04.322Z,87.34
2022-12-03T12:16:41.270Z,87.07
2022-12-03T12:19:27.079Z,87.40
2022-12-03T12:21:54.523Z,87.36
2022-12-03T12:24:45.689Z,87.37
2022-12-03T12:27:14.814Z,87.79
2022-12-03T12:29:43.179Z,88.10
2022-12-03T12:32:10.100Z,87.12
2022-12-03T12:34:38.096Z,87.15
2022-12-03T12:37:10.084Z,87.11
2022-12-03T12:39:36.682Z,87.51
2022-12-03T12:42:25.674Z,86.97
2022-12-03T12:44:52.406Z,87.08
2022-12-03T12:47:19.077Z,87.21
2022-12-03T12:49:51.482Z,86.97
2022-12-03T12:52:18.322Z,87.35
2022-12-03T12:54:44.868Z,87.19
2022-12-03T12:57:20.495Z,87.49
2022-12-03T12:59:47.011Z,87.47
2022-12-03T13:02:31.785Z,87.29
2022-12-03T13:05:01.048Z,87.39
2022-12-03T13:07:27.604Z,87.24
2022-12-03T13:09:56.831Z,87.28
2022-12-03T13:12:23.752Z,87.16
2022-12-03T13:14:52.107Z,86.92
2022-12-03T13:17:24.546Z,87.11
2022-12-03T13:20:00.466Z,87.58
2022-12-03T13:22:31.837Z,87.22
2022-12-03T13:25:06.800Z,87.36
2022-12-03T13:27:33.256Z,87.80
2022-12-03T13:30:06.728Z,87.87
2022-12-03T13:32:36.068Z,87.75
2022-12-03T13:35:05.696Z,87.42
2022-12-03T13:37:32.305Z,88.06
2022-12-03T13:40:09.132Z,87.92
2022-12-03T13:42:40.444Z,87.72
2022-12-03T13:45:15.660Z,87.74
2022-12-03T13:47:53.187Z,87.74
2022-12-03T13:50:37.045Z,87.42
2022-12-03T13:53:12.790Z,87.41
2022-12-03T13:55:44.829Z,88.19
2022-12-03T13:58:11.330Z,87.80
2022-12-03T14:00:37.990Z,87.80
2022-12-03T14:03:04.953Z,87.81
2022-12-03T14:05:31.558Z,88.11
2022-12-03T14:08:01.671Z,87.88
2022-12-03T14:10:29.427Z,87.87
2022-12-03T14:12:56.142Z,88.31
2022-12-03T14:15:22.659Z,88.10
2022-12-03T14:17:49.189Z,88.15
2022-12-03T14:20:15.944Z,87.70
2022-12-03T14:22:42.449Z,88.50
2022-12-03T14:25:09.462Z,88.02
2022-12-03T14:27:36.290Z,87.74
2022-12-03T14:30:03.526Z,88.13
2022-12-03T14:32:30.138Z,88.30
2022-12-03T14:34:56.787Z,88.10
2022-12-03T14:37:23.316Z,88.42
2022-12-03T14:39:49.933Z,88.38
2022-12-03T14:42:16.791Z,88.04
2022-12-03T14:44:52.490Z,87.90
2022-12-03T14:47:22.562Z,88.26
2022-12-03T14:49:50.479Z,88.58
2022-12-03T14:52:18.017Z,88.44
2022-12-03T14:54:45.218Z,87.74
2022-12-03T14:57:13.477Z,87.99
2022-12-03T14:59:44.235Z,87.82
2022-12-03T15:02:11.986Z,88.27
2022-12-03T15:04:40.072Z,88.11
2022-12-03T15:07:07.329Z,88.45
2022-12-03T15:09:34.098Z,88.72
2022-12-03T15:12:02.892Z,88.33
2022-12-03T15:14:29.476Z,88.34
2022-12-03T15:16:56.166Z,87.96
2022-12-03T15:19:22.751Z,88.06
2022-12-03T15:21:49.198Z,88.09
2022-12-03T15:24:15.722Z,88.03
2022-12-03T15:26:57.283Z,88.08
2022-12-03T15:29:23.767Z,88.59
2022-12-03T15:31:50.252Z,88.48
2022-12-03T15:34:22.202Z,88.29
2022-12-03T15:36:49.568Z,88.00
2022-12-03T15:39:16.042Z,87.90
2022-12-03T15:41:42.613Z,87.31
2022-12-03T15:44:09.127Z,87.72
2022-12-03T15:46:35.741Z,87.64
2022-12-03T15:49:02.358Z,87.94
2022-12-03T15:51:28.837Z,88.12
2022-12-03T15:53:55.295Z,88.09
2022-12-03T15:56:21.760Z,88.05
2022-12-03T15:58:48.361Z,88.50
2022-12-03T16:01:15.146Z,88.01
2022-12-03T16:03:41.787Z,88.16
2022-12-03T16:06:08.793Z,88.19
2022-12-03T16:08:35.383Z,88.17
2022-12-03T16:11:01.949Z,88.13
2022-12-03T16:13:28.430Z,88.39
2022-12-03T16:15:54.998Z,88.35
2022-12-03T16:18:21.494Z,88.67
2022-12-03T16:20:48.011Z,88.55
2022-12-03T16:23:14.522Z,88.68
2022-12-03T16:25:40.984Z,88.55
2022-12-03T16:28:07.526Z,88.44
2022-12-03T16:30:34.264Z,88.87
2022-12-03T16:33:00.905Z,88.90
2022-12-03T16:35:27.579Z,89.17
2022-12-03T16:37:54.115Z,89.19
2022-12-03T16:40:20.639Z,89.41
2022-12-03T16:42:47.176Z,89.47
2022-12-03T16:45:28.837Z,89.33
2022-12-03T16:47:55.304Z,89.59
2022-12-03T16:50:29.183Z,89.59
2022-12-03T16:52:56.661Z,90.11
2022-12-03T16:55:23.219Z,90.02
2022-12-03T16:57:49.770Z,89.99
2022-12-03T17:00:16.955Z,89.92
2022-12-03T17:02:43.572Z,90.05
2022-12-03T17:05:10.159Z,90.24
2022-12-03T17:07:36.727Z,90.67
2022-12-03T17:10:04.701Z,90.35
2022-12-03T17:12:54.203Z,90.44
2022-12-03T17:15:18.935Z,90.22
2022-12-03T17:17:45.389Z,90.26
2022-12-03T17:20:13.354Z,90.52
2022-12-03T17:22:40.321Z,90.42
2022-12-03T17:25:07.619Z,90.67
2022-12-03T17:27:34.093Z,90.34
2022-12-03T17:30:00.765Z,90.35
2022-12-03T17:32:27.310Z,90.16
2022-12-03T17:34:53.923Z,90.59
2022-12-03T17:37:20.468Z,90.43
2022-12-03T17:39:46.997Z,90.50
2022-12-03T17:42:13.548Z,90.41
2022-12-03T17:44:40.103Z,90.61
2022-12-03T17:47:06.676Z,90.62
2022-12-03T17:49:33.219Z,90.64
2022-12-03T17:51:59.751Z,90.77
2022-12-03T17:54:43.286Z,90.52
2022-12-03T17:57:12.736Z,90.63
2022-12-03T17:59:39.250Z,90.56
2022-12-03T18:02:06.248Z,90.80
2022-12-03T18:04:32.959Z,90.55
2022-12-03T18:07:02.318Z,90.80
2022-12-03T18:09:29.317Z,90.74
2022-12-03T18:11:55.841Z,90.52
2022-12-03T18:14:22.311Z,90.89
2022-12-03T18:16:48.812Z,90.99
2022-12-03T18:19:15.471Z,91.05
2022-12-03T18:21:42.077Z,90.80
2022-12-03T18:24:09.382Z,90.94
2022-12-03T18:26:35.919Z,90.85
2022-12-03T18:29:02.534Z,90.91
2022-12-03T18:31:29.188Z,91.01
2022-12-03T18:33:55.787Z,91.20
2022-12-03T18:36:25.684Z,90.91
2022-12-03T18:38:55.191Z,91.20
2022-12-03T18:41:23.338Z,91.17
2022-12-03T18:43:50.816Z,91.25
2022-12-03T18:46:51.284Z,91.32
2022-12-03T18:49:05.490Z,91.12
2022-12-03T18:51:32.031Z,91.43
2022-12-03T18:53:58.535Z,91.49
2022-12-03T18:56:25.139Z,91.60
2022-12-03T18:58:51.735Z,91.43
2022-12-03T19:01:21.171Z,91.60
2022-12-03T19:03:49.061Z,91.53
2022-12-03T19:06:19.067Z,91.43
2022-12-03T19:08:48.149Z,91.06
2022-12-03T19:11:14.953Z,91.60
2022-12-03T19:13:42.353Z,91.54
2022-12-03T19:16:10.228Z,91.51
2022-12-03T19:18:36.787Z,91.17
2022-12-03T19:21:08.032Z,91.44
2022-12-03T19:23:35.703Z,91.35
2022-12-03T19:26:03.753Z,91.33
2022-12-03T19:28:30.727Z,91.24
2022-12-03T19:31:08.952Z,91.29
2022-12-03T19:33:35.865Z,91.48
2022-12-03T19:36:04.213Z,91.32
2022-12-03T19:38:31.265Z,91.18
2022-12-03T19:41:00.550Z,91.43
2022-12-03T19:43:27.386Z,91.45
2022-12-03T19:45:54.574Z,91.35
2022-12-03T19:48:22.897Z,91.27
2022-12-03T19:51:07.921Z,91.35
2022-12-03T19:53:40.497Z,91.56
2022-12-03T19:56:09.827Z,91.72
2022-12-03T19:58:37.099Z,91.69
2022-12-03T20:01:20.363Z,91.88
2022-12-03T20:03:48.887Z,91.48
2022-12-03T20:06:16.967Z,91.29
2022-12-03T20:08:43.821Z,91.63
2022-12-03T20:11:19.719Z,91.25
2022-12-03T20:13:48.106Z,90.88
2022-12-03T20:16:15.603Z,91.00
2022-12-03T20:18:46.256Z,91.19
2022-12-03T20:21:14.339Z,91.12
2022-12-03T20:23:41.655Z,91.09
2022-12-03T20:26:10.252Z,91.35
2022-12-03T20:28:37.297Z,91.01
2022-12-03T20:31:11.770Z,91.70
2022-12-03T20:33:39.489Z,91.46
2022-12-03T20:36:06.586Z,91.45
2022-12-03T20:38:33.478Z,91.50
2022-12-03T20:41:08.396Z,91.06
2022-12-03T20:43:35.590Z,91.01
2022-12-03T20:46:09.256Z,91.46
2022-12-03T20:48:35.926Z,91.38
2022-12-03T20:51:06.828Z,91.25
2022-12-03T20:53:33.853Z,91.21
2022-12-03T20:56:01.350Z,91.08
2022-12-03T20:58:28.594Z,91.37
2022-12-03T21:00:55.145Z,91.67
2022-12-03T21:03:22.073Z,91.59
2022-12-03T21:05:48.620Z,91.31
2022-12-03T21:08:15.168Z,91.60
2022-12-03T21:10:44.912Z,91.87
2022-12-03T21:13:16.481Z,91.62
2022-12-03T21:15:44.010Z,91.63
2022-12-03T21:18:12.575Z,91.73
2022-12-03T21:20:44.006Z,91.86
2022-12-03T21:23:11.229Z,91.63
2022-12-03T21:25:38.089Z,91.41
2022-12-03T21:28:06.579Z,91.59
2022-12-03T21:30:34.035Z,91.53
2022-12-03T21:33:00.549Z,91.89
2022-12-03T21:35:27.083Z,91.43
2022-12-03T21:37:53.566Z,91.78
2022-12-03T21:40:20.562Z,91.56
2022-12-03T21:42:47.264Z,91.51
2022-12-03T21:45:14.195Z,91.50
2022-12-03T21:47:40.791Z,91.41
2022-12-03T21:50:11.056Z,91.68
2022-12-03T21:52:37.575Z,91.58
2022-12-03T21:55:04.271Z,91.57
2022-12-03T21:57:30.874Z,91.62
2022-12-03T21:59:57.696Z,91.48
2022-12-03T22:02:24.322Z,91.50
2022-12-03T22:04:51.018Z,91.84
2022-12-03T22:07:17.602Z,91.80
2022-12-03T22:09:44.119Z,91.84
2022-12-03T22:12:10.642Z,92.03
2022-12-03T22:14:37.394Z,91.80
2022-12-03T22:17:03.903Z,92.05
2022-12-03T22:19:30.378Z,92.06
2022-12-03T22:21:56.993Z,92.17
2022-12-03T22:24:23.962Z,92.21
2022-12-03T22:26:52.158Z,92.13
2022-12-03T22:29:18.712Z,92.08
2022-12-03T22:31:45.265Z,92.29
2022-12-03T22:34:11.828Z,92.08
2022-12-03T22:36:38.377Z,92.16
2022-12-03T22:39:04.849Z,91.84
2022-12-03T22:41:31.396Z,91.97
2022-12-03T22:43:57.945Z,92.31
2022-12-03T22:46:24.528Z,92.19
2022-12-03T22:48:51.059Z,92.80
2022-12-03T22:51:21.150Z,92.28
2022-12-03T22:53:52.863Z,92.73
2022-12-03T22:56:19.318Z,92.50
2022-12-03T22:58:45.829Z,92.95
2022-12-03T23:01:24.418Z,92.40
2022-12-03T23:03:51.080Z,92.08
2022-12-03T23:06:18.722Z,91.97
2022-12-03T23:08:45.461Z,92.54
2022-12-03T23:11:12.072Z,92.58
2022-12-03T23:13:39.197Z,92.23
2022-12-03T23:16:06.574Z,92.43
2022-12-03T23:18:33.464Z,92.38
2022-12-03T23:21:00.114Z,92.35
2022-12-03T23:23:27.974Z,92.39
2022-12-03T23:25:59.477Z,92.45
2022-12-03T23:28:27.285Z,92.44
2022-12-03T23:30:54.220Z,92.28
2022-12-03T23:33:21.469Z,92.87
2022-12-03T23:35:48.258Z,92.79
2022-12-03T23:38:15.421Z,92.50
2022-12-03T23:40:47.744Z,92.78
2022-12-03T23:43:14.962Z,92.47
2022-12-03T23:45:41.506Z,92.31
2022-12-03T23:48:08.002Z,92.65
2022-12-03T23:50:34.868Z,92.89
2022-12-03T23:53:01.447Z,92.80
2022-12-03T23:55:27.934Z,93.12
2022-12-03T23:57:54.524Z,92.54
